createdAt,value
2022-10-24T00:00:44.914Z,68.64
2022-10-24T00:03:51.466Z,68.55
2022-10-24T00:06:56.996Z,68.38
2022-10-24T00:10:02.546Z,68.31
2022-10-24T00:13:08.301Z,68.71
2022-10-24T00:16:14.709Z,69.79
2022-10-24T00:19:20.423Z,71.44
2022-10-24T00:22:26.077Z,71.27
2022-10-24T00:25:31.522Z,70.06
2022-10-24T00:28:38.436Z,69.30
2022-10-24T00:31:44.205Z,69.07
2022-10-24T00:34:49.706Z,68.69
2022-10-24T00:37:55.461Z,68.67
2022-10-24T00:41:01.009Z,68.60
2022-10-24T00:44:19.974Z,68.61
2022-10-24T00:47:28.235Z,68.72
2022-10-24T00:50:34.249Z,68.61
2022-10-24T00:53:45.451Z,68.83
2022-10-24T00:56:58.044Z,69.14
2022-10-24T01:00:08.297Z,69.03
2022-10-24T01:03:14.861Z,69.19
2022-10-24T01:06:54.321Z,69.47
2022-10-24T01:10:22.488Z,69.61
2022-10-24T01:13:36.703Z,69.43
2022-10-24T01:16:48.864Z,69.27
2022-10-24T01:20:20.296Z,69.28
2022-10-24T01:24:01.095Z,69.57
2022-10-24T01:27:32.001Z,70.88
2022-10-24T01:30:42.708Z,70.80
2022-10-24T01:33:54.937Z,70.16
2022-10-24T01:37:05.887Z,69.99
2022-10-24T01:40:16.145Z,69.79
2022-10-24T01:43:26.977Z,69.56
2022-10-24T01:46:36.974Z,69.56
2022-10-24T01:49:46.220Z,69.52
2022-10-24T01:52:55.547Z,69.71
2022-10-24T01:56:01.937Z,69.73
2022-10-24T01:59:07.518Z,69.87
2022-10-24T02:02:16.906Z,70.68
2022-10-24T02:05:27.152Z,70.65
2022-10-24T02:08:38.656Z,71.02
2022-10-24T02:11:46.807Z,70.92
2022-10-24T02:14:56.819Z,70.88
2022-10-24T02:18:03.113Z,70.79
2022-10-24T02:21:13.806Z,70.76
2022-10-24T02:24:24.545Z,70.93
2022-10-24T02:27:34.549Z,70.68
2022-10-24T02:30:44.910Z,70.68
2022-10-24T02:33:52.848Z,70.68
2022-10-24T02:37:00.290Z,70.69
2022-10-24T02:40:10.628Z,70.98
2022-10-24T02:43:18.612Z,71.07
2022-10-24T02:46:25.439Z,71.08
2022-10-24T02:49:31.210Z,71.07
2022-10-24T02:52:38.381Z,71.11
2022-10-24T02:55:44.086Z,71.15
2022-10-24T02:58:49.533Z,71.15
2022-10-24T03:01:55.270Z,71.03
2022-10-24T03:05:01.410Z,71.06
2022-10-24T03:08:07.969Z,71.34
2022-10-24T03:11:13.676Z,71.24
2022-10-24T03:14:19.424Z,71.38
2022-10-24T03:17:24.976Z,71.22
2022-10-24T03:20:30.590Z,71.14
2022-10-24T03:23:36.077Z,71.51
2022-10-24T03:26:41.496Z,71.56
2022-10-24T03:29:46.972Z,71.36
2022-10-24T03:32:52.462Z,71.56
2022-10-24T03:35:58.172Z,71.48
2022-10-24T03:39:04.181Z,71.35
2022-10-24T03:42:09.749Z,71.09
2022-10-24T03:45:15.948Z,70.85
2022-10-24T03:48:19.843Z,70.66
2022-10-24T03:51:25.308Z,70.94
2022-10-24T03:54:31.112Z,71.10
2022-10-24T03:57:36.610Z,71.64
2022-10-24T04:00:43.370Z,72.11
2022-10-24T04:03:48.940Z,72.20
2022-10-24T04:06:54.392Z,71.67
2022-10-24T04:09:59.936Z,71.41
2022-10-24T04:13:05.352Z,71.64
2022-10-24T04:16:11.792Z,71.02
2022-10-24T04:19:18.545Z,70.86
2022-10-24T04:22:24.080Z,71.01
2022-10-24T04:25:30.183Z,71.11
2022-10-24T04:28:35.998Z,71.01
2022-10-24T04:31:41.750Z,70.90
2022-10-24T04:34:47.221Z,70.97
2022-10-24T04:37:53.097Z,71.13
2022-10-24T04:40:58.609Z,71.27
2022-10-24T04:44:04.152Z,71.16
2022-10-24T04:47:09.651Z,71.16
2022-10-24T04:50:15.246Z,71.31
2022-10-24T04:53:20.850Z,71.46
2022-10-24T04:56:27.078Z,71.44
2022-10-24T04:59:30.972Z,71.42
2022-10-24T05:02:36.602Z,71.72
2022-10-24T05:05:42.344Z,71.83
2022-10-24T05:08:47.834Z,72.08
2022-10-24T05:11:55.019Z,72.12
2022-10-24T05:15:00.568Z,72.35
2022-10-24T05:18:06.906Z,72.37
2022-10-24T05:21:10.847Z,72.32
2022-10-24T05:24:16.603Z,72.52
2022-10-24T05:27:24.872Z,72.15
2022-10-24T05:30:30.467Z,72.08
2022-10-24T05:33:35.922Z,72.06
2022-10-24T05:36:41.412Z,71.97
2022-10-24T05:39:47.013Z,71.86
2022-10-24T05:42:53.175Z,71.80
2022-10-24T05:45:58.727Z,71.64
2022-10-24T05:49:04.275Z,71.66
2022-10-24T05:52:09.926Z,71.77
2022-10-24T05:55:17.876Z,71.52
2022-10-24T05:58:25.019Z,71.54
2022-10-24T06:01:30.601Z,71.58
2022-10-24T06:04:36.125Z,71.67
2022-10-24T06:07:43.286Z,72.06
2022-10-24T06:10:50.781Z,72.18
2022-10-24T06:13:56.258Z,72.54
2022-10-24T06:17:01.774Z,72.50
2022-10-24T06:20:08.808Z,72.49
2022-10-24T06:23:14.331Z,72.53
2022-10-24T06:26:23.118Z,72.93
2022-10-24T06:29:29.831Z,73.13
2022-10-24T06:32:35.890Z,73.11
2022-10-24T06:35:41.954Z,73.17
2022-10-24T06:38:47.511Z,73.14
2022-10-24T06:41:53.053Z,73.27
2022-10-24T06:48:10.740Z,73.63
2022-10-24T06:51:19.123Z,74.47
2022-10-24T06:54:26.513Z,74.31
2022-10-24T06:57:35.127Z,74.32
2022-10-24T07:00:41.711Z,74.52
2022-10-24T07:03:47.976Z,74.49
2022-10-24T07:06:51.990Z,74.57
2022-10-24T07:09:58.725Z,74.85
2022-10-24T07:13:04.229Z,74.08
2022-10-24T07:16:11.034Z,73.97
2022-10-24T07:19:16.451Z,74.27
2022-10-24T07:22:22.028Z,74.07
2022-10-24T07:25:27.437Z,73.63
2022-10-24T07:28:33.236Z,73.92
2022-10-24T07:31:38.968Z,74.08
2022-10-24T07:34:44.699Z,74.18
2022-10-24T07:37:50.251Z,74.34
2022-10-24T07:40:55.798Z,74.54
2022-10-24T07:44:02.612Z,74.99
2022-10-24T07:47:10.101Z,75.41
2022-10-24T07:50:17.294Z,75.23
2022-10-24T07:53:22.706Z,74.82
2022-10-24T07:56:28.306Z,74.24
2022-10-24T07:59:41.764Z,73.47
2022-10-24T08:05:57.194Z,71.54
2022-10-24T08:09:03.052Z,70.26
2022-10-24T08:12:09.065Z,69.38
2022-10-24T08:15:14.864Z,69.80
2022-10-24T08:18:20.413Z,68.74
2022-10-24T08:21:26.929Z,68.98
2022-10-24T08:24:32.433Z,69.26
2022-10-24T08:27:38.349Z,69.69
2022-10-24T08:30:43.882Z,69.45
2022-10-24T08:33:52.359Z,69.32
2022-10-24T08:36:57.806Z,68.59
2022-10-24T08:40:05.403Z,67.92
2022-10-24T08:43:13.019Z,67.48
2022-10-24T08:46:36.369Z,67.53
2022-10-24T08:49:50.259Z,67.16
2022-10-24T08:53:01.816Z,67.04
2022-10-24T08:56:11.373Z,66.95
2022-10-24T08:59:16.896Z,66.99
2022-10-24T09:02:26.665Z,65.36
2022-10-24T09:05:43.456Z,66.23
2022-10-24T09:08:53.921Z,65.52
2022-10-24T09:12:03.200Z,64.75
2022-10-24T09:15:21.216Z,63.78
2022-10-24T09:18:32.317Z,63.63
2022-10-24T09:21:38.650Z,62.31
2022-10-24T09:24:48.658Z,62.08
2022-10-24T09:27:54.217Z,61.89
2022-10-24T09:30:59.699Z,61.75
2022-10-24T09:34:07.229Z,60.72
2022-10-24T09:37:35.129Z,60.81
2022-10-24T09:40:53.722Z,61.71
2022-10-24T09:44:01.405Z,61.19
2022-10-24T09:47:22.845Z,60.93
2022-10-24T09:50:29.565Z,60.20
2022-10-24T09:53:37.610Z,60.02
2022-10-24T09:56:44.611Z,59.83
2022-10-24T09:59:59.536Z,58.13
2022-10-24T10:03:07.722Z,59.27
2022-10-24T10:06:20.171Z,60.54
2022-10-24T10:09:31.510Z,61.13
2022-10-24T10:12:40.285Z,59.04
2022-10-24T10:15:50.425Z,58.86
2022-10-24T10:19:04.964Z,60.38
2022-10-24T10:22:25.880Z,60.79
2022-10-24T10:25:33.466Z,60.70
2022-10-24T10:28:48.338Z,59.99
2022-10-24T10:31:59.256Z,59.23
2022-10-24T10:35:14.382Z,58.03
2022-10-24T10:38:37.745Z,58.25
2022-10-24T10:41:49.575Z,60.97
2022-10-24T10:45:09.980Z,61.52
2022-10-24T10:48:33.083Z,61.00
2022-10-24T10:51:45.631Z,60.25
2022-10-24T10:55:09.110Z,60.47
2022-10-24T10:58:27.048Z,59.86
2022-10-24T11:01:46.502Z,59.70
2022-10-24T11:04:59.548Z,59.46
2022-10-24T11:08:18.546Z,57.87
2022-10-24T11:11:29.236Z,58.88
2022-10-24T11:14:38.060Z,59.83
2022-10-24T11:17:47.514Z,61.12
2022-10-24T11:20:58.481Z,61.38
2022-10-24T11:24:11.112Z,60.72
2022-10-24T11:27:26.621Z,59.76
2022-10-24T11:30:43.621Z,60.17
2022-10-24T11:33:56.699Z,57.87
2022-10-24T11:37:07.492Z,57.91
2022-10-24T11:40:16.265Z,59.29
2022-10-24T11:43:27.136Z,61.93
2022-10-24T11:46:37.700Z,62.78
2022-10-24T11:49:48.984Z,63.66
2022-10-24T11:52:56.888Z,64.21
2022-10-24T11:56:08.327Z,64.13
2022-10-24T11:59:21.608Z,62.67
2022-10-24T12:03:00.943Z,61.49
2022-10-24T12:06:32.771Z,61.03
2022-10-24T12:10:07.990Z,60.27
2022-10-24T12:13:29.190Z,58.34
2022-10-24T12:16:48.029Z,59.17
2022-10-24T12:19:54.909Z,59.97
2022-10-24T12:23:02.536Z,61.67
2022-10-24T12:26:18.593Z,62.09
2022-10-24T12:29:28.090Z,61.71
2022-10-24T12:32:42.423Z,60.74
2022-10-24T12:35:52.962Z,60.54
2022-10-24T12:39:09.541Z,60.14
2022-10-24T12:42:39.871Z,60.24
2022-10-24T12:45:45.480Z,60.82
2022-10-24T12:49:20.600Z,59.76
2022-10-24T12:53:07.277Z,59.03
2022-10-24T12:56:22.534Z,58.33
2022-10-24T12:59:31.453Z,58.67
2022-10-24T13:02:53.762Z,59.68
2022-10-24T13:06:07.774Z,62.41
2022-10-24T13:09:26.378Z,63.07
2022-10-24T13:12:53.113Z,63.00
2022-10-24T13:16:04.321Z,62.54
2022-10-24T13:19:18.761Z,61.85
2022-10-24T13:22:34.810Z,60.58
2022-10-24T13:25:41.926Z,59.79
2022-10-24T13:28:47.653Z,59.09
2022-10-24T13:31:55.014Z,58.31
2022-10-24T13:35:02.851Z,58.84
2022-10-24T13:38:10.842Z,59.79
2022-10-24T13:41:24.833Z,61.24
2022-10-24T13:44:35.468Z,61.66
2022-10-24T13:47:46.365Z,59.90
2022-10-24T13:51:02.131Z,59.90
2022-10-24T13:54:15.062Z,58.90
2022-10-24T13:57:33.892Z,58.91
2022-10-24T14:00:41.927Z,59.93
2022-10-24T14:03:48.599Z,61.42
2022-10-24T14:06:54.378Z,61.59
2022-10-24T14:10:04.719Z,60.80
2022-10-24T14:13:17.654Z,58.43
2022-10-24T14:16:29.173Z,58.60
2022-10-24T14:19:38.380Z,58.73
2022-10-24T14:22:44.724Z,59.02
2022-10-24T14:25:58.268Z,59.23
2022-10-24T14:29:03.961Z,60.93
2022-10-24T14:32:15.366Z,60.89
2022-10-24T14:35:20.958Z,59.80
2022-10-24T14:38:27.548Z,58.53
2022-10-24T14:41:35.773Z,58.32
2022-10-24T14:44:44.105Z,58.83
2022-10-24T14:47:54.944Z,59.26
2022-10-24T14:51:09.403Z,59.88
2022-10-24T14:54:21.292Z,61.65
2022-10-24T14:57:27.905Z,62.44
2022-10-24T15:00:41.115Z,62.29
2022-10-24T15:03:55.977Z,62.08
2022-10-24T15:07:16.371Z,61.53
2022-10-24T15:10:33.990Z,60.86
2022-10-24T15:13:48.138Z,61.07
2022-10-24T15:17:21.459Z,60.32
2022-10-24T15:20:30.164Z,60.30
2022-10-24T15:23:37.799Z,60.78
2022-10-24T15:26:45.596Z,61.26
2022-10-24T15:29:51.012Z,60.91
2022-10-24T15:32:59.514Z,61.42
2022-10-24T15:36:06.235Z,60.99
2022-10-24T15:39:16.941Z,61.42
2022-10-24T15:42:23.710Z,61.78
2022-10-24T15:45:29.817Z,61.86
2022-10-24T15:48:35.367Z,61.87
2022-10-24T15:51:46.022Z,61.83
2022-10-24T15:54:55.376Z,61.85
2022-10-24T15:58:01.245Z,61.93
2022-10-24T16:01:07.069Z,62.14
2022-10-24T16:04:11.615Z,62.03
2022-10-24T16:07:17.169Z,62.03
2022-10-24T16:10:24.501Z,62.29
2022-10-24T16:13:30.643Z,62.01
2022-10-24T16:16:36.073Z,61.98
2022-10-24T16:19:41.616Z,63.06
2022-10-24T16:22:47.070Z,63.16
2022-10-24T16:25:52.815Z,63.12
2022-10-24T16:28:58.204Z,62.17
2022-10-24T16:32:03.710Z,61.76
2022-10-24T16:35:12.481Z,62.35
2022-10-24T16:38:18.360Z,62.39
2022-10-24T16:41:25.790Z,62.77
2022-10-24T16:44:31.847Z,62.72
2022-10-24T16:47:36.008Z,62.37
2022-10-24T16:50:46.417Z,62.86
2022-10-24T16:53:52.694Z,63.55
2022-10-24T16:56:58.356Z,63.33
2022-10-24T17:00:06.165Z,63.39
2022-10-24T17:03:11.800Z,63.70
2022-10-24T17:06:17.350Z,63.90
2022-10-24T17:09:23.017Z,63.70
2022-10-24T17:12:28.556Z,63.79
2022-10-24T17:15:34.052Z,63.76
2022-10-24T17:18:40.042Z,63.79
2022-10-24T17:21:47.999Z,64.39
2022-10-24T17:24:53.719Z,65.34
2022-10-24T17:27:59.767Z,64.98
2022-10-24T17:31:05.885Z,64.41
2022-10-24T17:34:10.108Z,64.63
2022-10-24T17:37:23.541Z,64.91
2022-10-24T17:40:40.421Z,64.85
2022-10-24T17:43:47.056Z,65.00
2022-10-24T17:46:56.027Z,65.32
2022-10-24T17:50:04.022Z,65.95
2022-10-24T17:53:11.976Z,66.02
2022-10-24T17:56:19.570Z,66.53
2022-10-24T17:59:27.569Z,66.57
2022-10-24T18:02:34.412Z,66.23
2022-10-24T18:05:39.898Z,66.04
2022-10-24T18:08:45.613Z,65.87
2022-10-24T18:11:51.060Z,65.71
2022-10-24T18:14:57.532Z,65.67
2022-10-24T18:18:03.008Z,65.73
2022-10-24T18:21:13.694Z,65.72
2022-10-24T18:24:19.161Z,65.53
2022-10-24T18:27:25.089Z,65.51
2022-10-24T18:30:30.983Z,66.00
2022-10-24T18:33:36.563Z,66.74
2022-10-24T18:36:42.060Z,67.19
2022-10-24T18:39:48.344Z,67.08
2022-10-24T18:42:58.843Z,67.12
2022-10-24T18:46:05.539Z,67.25
2022-10-24T18:49:12.241Z,67.03
2022-10-24T18:52:25.528Z,67.79
2022-10-24T18:55:33.157Z,67.67
2022-10-24T18:58:39.124Z,67.19
2022-10-24T19:01:52.016Z,67.57
2022-10-24T19:05:13.632Z,68.19
2022-10-24T19:08:22.110Z,68.80
2022-10-24T19:11:28.111Z,68.81
2022-10-24T19:14:34.195Z,68.71
2022-10-24T19:17:38.188Z,68.84
2022-10-24T19:20:43.962Z,68.91
2022-10-24T19:23:50.670Z,68.67
2022-10-24T19:26:56.165Z,69.05
2022-10-24T19:30:01.572Z,69.41
2022-10-24T19:33:06.964Z,69.66
2022-10-24T19:36:19.012Z,69.79
2022-10-24T19:39:25.981Z,69.32
2022-10-24T19:42:34.700Z,68.51
2022-10-24T19:45:49.903Z,68.14
2022-10-24T19:49:00.612Z,67.65
2022-10-24T19:52:06.308Z,67.54
2022-10-24T19:55:12.074Z,67.48
2022-10-24T19:58:20.156Z,67.40
2022-10-24T20:01:27.509Z,67.36
2022-10-24T20:04:33.479Z,67.26
2022-10-24T20:07:38.876Z,67.25
2022-10-24T20:10:51.502Z,67.43
2022-10-24T20:13:57.240Z,67.55
2022-10-24T20:17:02.744Z,68.00
2022-10-24T20:20:11.329Z,68.16
2022-10-24T20:23:17.120Z,68.28
2022-10-24T20:26:26.009Z,68.53
2022-10-24T20:29:32.518Z,68.70
2022-10-24T20:32:37.933Z,68.71
2022-10-24T20:35:44.457Z,68.91
2022-10-24T20:38:49.916Z,68.97
2022-10-24T20:41:55.532Z,68.99
2022-10-24T20:45:00.990Z,69.27
2022-10-24T20:48:06.920Z,69.68
2022-10-24T20:51:14.543Z,69.82
2022-10-24T20:54:20.952Z,70.00
2022-10-24T20:57:26.459Z,70.59
2022-10-24T21:00:31.984Z,71.20
2022-10-24T21:03:38.193Z,72.31
2022-10-24T21:06:42.084Z,72.05
2022-10-24T21:09:47.530Z,71.45
2022-10-24T21:12:53.824Z,70.91
2022-10-24T21:15:59.569Z,70.61
2022-10-24T21:19:06.316Z,70.38
2022-10-24T21:22:11.776Z,70.61
2022-10-24T21:25:17.553Z,70.87
2022-10-24T21:28:22.959Z,70.58
2022-10-24T21:31:28.528Z,70.45
2022-10-24T21:34:34.848Z,70.82
2022-10-24T21:37:40.678Z,71.11
2022-10-24T21:40:46.121Z,71.06
2022-10-24T21:43:52.146Z,71.41
2022-10-24T21:46:57.709Z,70.88
2022-10-24T21:50:03.155Z,70.51
2022-10-24T21:53:08.705Z,70.25
2022-10-24T21:56:15.812Z,69.93
2022-10-24T21:59:22.618Z,69.88
2022-10-24T22:02:28.171Z,69.66
2022-10-24T22:05:33.724Z,69.51
2022-10-24T22:08:39.144Z,69.37
2022-10-24T22:11:44.865Z,69.34
2022-10-24T22:14:50.317Z,69.46
2022-10-24T22:17:55.658Z,69.46
2022-10-24T22:21:02.371Z,69.52
2022-10-24T22:24:10.377Z,69.50
2022-10-24T22:27:15.997Z,70.00
2022-10-24T22:30:21.470Z,70.19
2022-10-24T22:33:34.164Z,70.00
2022-10-24T22:37:09.024Z,69.97
2022-10-24T22:40:25.003Z,69.96
2022-10-24T22:43:31.715Z,70.32
2022-10-24T22:46:52.070Z,70.77
2022-10-24T22:50:04.504Z,71.58
2022-10-24T22:53:15.306Z,71.50
2022-10-24T22:56:27.155Z,71.36
2022-10-24T22:59:34.314Z,71.34
2022-10-24T23:02:46.120Z,71.39
2022-10-24T23:05:59.973Z,71.62
2022-10-24T23:09:05.625Z,71.47
2022-10-24T23:12:17.161Z,71.23
2022-10-24T23:15:24.881Z,71.10
2022-10-24T23:18:31.637Z,71.52
2022-10-24T23:21:44.616Z,70.94
2022-10-24T23:24:51.553Z,70.67
2022-10-24T23:28:03.942Z,70.54
2022-10-24T23:31:10.769Z,70.53
2022-10-24T23:34:17.662Z,70.41
2022-10-24T23:37:32.711Z,70.45
2022-10-24T23:40:41.732Z,70.53
2022-10-24T23:43:48.558Z,70.55
2022-10-24T23:47:00.609Z,70.66
2022-10-24T23:50:11.733Z,70.71
2022-10-24T23:53:41.460Z,70.88
2022-10-24T23:56:48.449Z,70.96
2022-10-24T23:59:53.982Z,70.90
